Time;durP1;ratioP1;P1;durP2;ratioP2;P2;SDS_P1;SDS_P2;PMS_P1;PMS_P2;Temp;Humidity;BMP_temperature;BMP_pressure;BME280_temperature;BME280_humidity;BME280_pressure;Samples;Min_cycle;Max_cycle;Signal;HPM_P1;HPM_P2
2021/10/02 00:02:14;;;;;;;7.35;6.15;;;13.30;75.20;;;;;;5054155;28;20037;-68
2021/10/02 00:31:16;;;;;;;7.83;6.67;;;13.30;75.20;;;;;;5055710;28;20093;-68
2021/10/02 00:45:19;;;;;;;6.68;4.90;;;13.40;76.00;;;;;;5053465;28;20050;-67
2021/10/02 00:47:44;;;;;;;4.70;4.20;;;13.40;75.80;;;;;;5055534;28;20112;-68
2021/10/02 00:50:10;;;;;;;5.30;4.72;;;13.40;75.80;;;;;;5054244;28;20209;-67
2021/10/02 00:52:36;;;;;;;7.28;4.95;;;13.40;75.80;;;;;;5051935;28;20052;-67
2021/10/02 00:55:02;;;;;;;6.13;4.55;;;13.40;75.90;;;;;;5054883;28;20033;-68
2021/10/02 00:57:28;;;;;;;5.57;4.57;;;13.40;75.80;;;;;;5054285;28;20036;-67
2021/10/02 00:59:54;;;;;;;6.13;4.78;;;13.40;75.80;;;;;;5053895;28;20043;-67
2021/10/02 01:02:44;;;;;;;5.18;4.55;;;13.40;76.00;;;;;;5052404;28;20123;-67
2021/10/02 01:05:40;;;;;;;5.13;4.20;;;13.40;76.10;;;;;;5055810;28;20029;-67
2021/10/02 01:08:24;;;;;;;7.85;4.78;;;13.40;76.50;;;;;;5056117;28;20403;-68
2021/10/02 01:11:06;;;;;;;6.60;4.70;;;13.40;75.90;;;;;;5050375;28;20549;-67
2021/10/02 01:13:35;;;;;;;5.35;4.80;;;13.40;76.40;;;;;;5053779;28;20047;-67
2021/10/02 01:16:24;;;;;;;6.45;4.80;;;13.40;76.10;;;;;;5051786;28;20412;-67
2021/10/02 01:19:01;;;;;;;7.10;5.07;;;13.40;76.50;;;;;;5045405;28;20029;-67
2021/10/02 01:21:33;;;;;;;5.38;4.68;;;13.40;76.30;;;;;;5050171;28;20087;-67
2021/10/02 01:24:11;;;;;;;7.43;5.00;;;13.40;76.30;;;;;;5046852;28;20040;-67
2021/10/02 01:27:10;;;;;;;6.25;5.07;;;13.40;76.50;;;;;;5052591;28;20033;-68
2021/10/02 01:29:37;;;;;;;6.40;5.20;;;13.50;76.90;;;;;;5055585;28;20374;-67
2021/10/02 01:32:13;;;;;;;6.95;5.43;;;13.40;76.10;;;;;;5052764;28;20924;-67
2021/10/02 01:35:04;;;;;;;6.32;5.30;;;13.40;76.40;;;;;;5050739;28;20029;-67
2021/10/02 01:48:36;;;;;;;6.60;5.50;;;13.50;76.80;;;;;;5054889;28;20093;-67
2021/10/02 01:51:03;;;;;;;6.50;4.90;;;13.50;76.80;;;;;;5056049;28;20033;-67
2021/10/02 01:53:33;;;;;;;7.60;5.70;;;13.40;76.60;;;;;;5055180;28;20119;-67
2021/10/02 01:56:04;;;;;;;6.90;5.63;;;13.50;77.70;;;;;;5039097;28;20442;-67
2021/10/02 01:58:32;;;;;;;8.93;6.22;;;13.50;77.10;;;;;;5055190;28;20117;-67
2021/10/02 02:00:58;;;;;;;10.60;6.05;;;13.50;77.20;;;;;;5051963;28;20105;-67
2021/10/02 02:03:25;;;;;;;8.25;6.47;;;13.50;77.30;;;;;;5052901;28;20041;-67
2021/10/02 02:05:53;;;;;;;8.52;6.10;;;13.50;77.50;;;;;;5055403;28;20028;-70
2021/10/02 02:08:20;;;;;;;7.50;5.60;;;13.60;77.80;;;;;;5055896;28;20045;-67
2021/10/02 02:10:47;;;;;;;7.75;6.13;;;13.60;77.90;;;;;;5049250;28;20036;-67
2021/10/02 02:13:15;;;;;;;7.45;6.00;;;13.60;77.90;;;;;;5052914;28;20036;-68
2021/10/02 02:15:42;;;;;;;6.57;5.65;;;13.60;79.00;;;;;;5054093;28;20036;-67
2021/10/02 02:18:15;;;;;;;8.30;6.28;;;13.60;78.10;;;;;;5055516;28;20025;-68
2021/10/02 02:21:03;;;;;;;8.25;6.05;;;13.70;78.60;;;;;;5052588;28;20025;-68
2021/10/02 02:23:29;;;;;;;9.40;6.07;;;13.70;79.10;;;;;;5053933;28;20062;-67
2021/10/02 02:26:00;;;;;;;6.53;5.65;;;13.70;78.20;;;;;;5051454;28;20701;-67
2021/10/02 02:28:26;;;;;;;8.05;6.30;;;13.80;78.40;;;;;;5057123;28;20463;-67
2021/10/02 02:30:52;;;;;;;7.82;6.00;;;13.80;78.60;;;;;;5048944;28;20041;-67
2021/10/02 02:33:18;;;;;;;6.80;5.43;;;13.70;78.60;;;;;;5051834;28;20651;-68
2021/10/02 02:35:45;;;;;;;6.40;5.05;;;13.80;78.40;;;;;;5050268;28;20033;-67
2021/10/02 02:38:12;;;;;;;5.70;5.00;;;13.80;78.20;;;;;;5056232;28;20397;-68
2021/10/02 02:40:37;;;;;;;6.25;5.28;;;13.80;78.70;;;;;;5050834;28;20500;-68
2021/10/02 02:43:03;;;;;;;6.97;5.53;;;13.80;77.90;;;;;;5051431;28;20058;-67
2021/10/02 02:45:29;;;;;;;6.03;5.13;;;13.80;77.70;;;;;;5051843;28;20029;-68
2021/10/02 02:48:04;;;;;;;8.68;6.22;;;13.80;77.60;;;;;;5053851;28;20028;-66
2021/10/02 02:50:46;;;;;;;8.77;6.85;;;13.80;78.40;;;;;;5051258;28;20024;-68
2021/10/02 02:53:31;;;;;;;7.70;6.10;;;13.70;78.80;;;;;;5055043;28;20027;-68
2021/10/02 02:56:01;;;;;;;;;;;13.70;78.60;;;;;;5053575;28;20057;-67
2021/10/02 02:58:30;;;;;;;6.80;6.00;;;13.80;79.00;;;;;;5050980;28;19920;-67
2021/10/02 03:01:00;;;;;;;8.98;6.63;;;13.70;77.90;;;;;;5053087;28;20642;-68
2021/10/02 03:03:29;;;;;;;6.78;6.03;;;13.70;78.00;;;;;;5046771;28;20041;-68
2021/10/02 03:06:00;;;;;;;7.82;6.35;;;13.70;78.00;;;;;;5053717;28;20040;-68
2021/10/02 03:08:31;;;;;;;7.43;6.15;;;13.70;78.30;;;;;;5052369;28;20032;-66
2021/10/02 03:11:01;;;;;;;6.45;5.72;;;13.70;78.30;;;;;;5049549;28;20067;-67
2021/10/02 03:13:29;;;;;;;6.90;6.05;;;13.70;78.00;;;;;;5045887;28;20080;-67
2021/10/02 03:15:56;;;;;;;7.20;6.35;;;13.70;78.00;;;;;;5046623;28;20047;-67
2021/10/02 03:18:23;;;;;;;7.57;6.30;;;13.70;77.90;;;;;;5050274;28;20128;-67
2021/10/02 03:20:53;;;;;;;8.73;6.25;;;13.70;77.90;;;;;;5027169;28;20029;-67
2021/10/02 03:23:22;;;;;;;8.10;5.97;;;13.70;77.90;;;;;;5029045;28;20421;-67
2021/10/02 03:25:48;;;;;;;7.95;6.53;;;13.70;77.70;;;;;;5034098;28;20034;-68
2021/10/02 03:28:14;;;;;;;6.43;5.50;;;13.70;77.60;;;;;;5032859;28;20040;-67
2021/10/02 03:30:40;;;;;;;6.93;5.90;;;13.70;77.50;;;;;;5032049;28;20033;-67
2021/10/02 03:33:06;;;;;;;9.25;6.25;;;13.70;77.50;;;;;;5033189;28;20451;-67
2021/10/02 03:35:32;;;;;;;6.47;5.80;;;13.60;77.50;;;;;;5029782;28;20030;-67
2021/10/02 03:37:58;;;;;;;7.22;6.47;;;13.70;77.50;;;;;;5034786;28;20037;-67
2021/10/02 03:40:24;;;;;;;8.70;6.70;;;13.60;77.50;;;;;;5030965;28;20056;-67
2021/10/02 03:42:52;;;;;;;7.82;6.38;;;13.60;78.40;;;;;;5033981;28;20087;-67
2021/10/02 03:45:20;;;;;;;7.57;6.00;;;13.60;77.90;;;;;;5030642;28;22610;-67
2021/10/02 03:47:45;;;;;;;8.93;6.07;;;13.50;77.80;;;;;;5031698;28;20055;-67
2021/10/02 03:50:11;;;;;;;7.63;5.50;;;13.50;77.90;;;;;;5032313;28;20033;-67
2021/10/02 03:52:38;;;;;;;8.00;6.30;;;13.50;77.80;;;;;;5032034;28;20522;-67
2021/10/02 03:55:06;;;;;;;13.73;6.35;;;13.40;77.80;;;;;;5027105;28;20075;-67
2021/10/02 03:57:32;;;;;;;7.72;6.00;;;13.40;77.90;;;;;;5034472;28;20034;-68
2021/10/02 03:59:58;;;;;;;8.00;6.30;;;13.30;77.80;;;;;;5027205;28;20381;-67
2021/10/02 04:02:23;;;;;;;7.78;6.15;;;13.30;77.80;;;;;;5048030;28;20056;-67
2021/10/02 04:04:50;;;;;;;7.63;6.38;;;13.20;77.70;;;;;;5054345;28;20504;-68
2021/10/02 04:07:15;;;;;;;7.65;6.45;;;13.20;77.80;;;;;;5053158;28;20064;-66
2021/10/02 04:09:41;;;;;;;7.13;5.93;;;13.20;77.70;;;;;;5048291;28;20094;-67
2021/10/02 04:12:07;;;;;;;9.45;6.03;;;13.20;77.70;;;;;;5042762;28;20040;-66
2021/10/02 04:14:33;;;;;;;7.40;6.10;;;13.10;77.70;;;;;;5044853;28;20037;-68
2021/10/02 04:16:59;;;;;;;6.57;5.40;;;13.10;77.70;;;;;;5048746;28;20041;-67
2021/10/02 04:19:25;;;;;;;6.97;5.70;;;13.10;77.70;;;;;;5053095;28;20037;-67
2021/10/02 04:21:51;;;;;;;6.38;5.63;;;13.10;77.80;;;;;;5050826;28;20094;-65
2021/10/02 04:24:18;;;;;;;7.13;6.38;;;13.00;77.70;;;;;;5047699;28;20036;-67
2021/10/02 04:26:43;;;;;;;6.78;5.90;;;13.10;77.90;;;;;;5051122;28;20044;-66
2021/10/02 04:29:09;;;;;;;7.22;6.40;;;13.00;77.70;;;;;;5055340;28;20415;-67
2021/10/02 04:31:36;;;;;;;7.28;6.50;;;13.00;77.60;;;;;;5047283;28;20071;-67
2021/10/02 04:34:02;;;;;;;10.38;6.85;;;13.00;77.90;;;;;;5054025;28;20416;-67
2021/10/02 04:36:27;;;;;;;8.48;6.07;;;12.90;78.20;;;;;;5050677;28;20040;-67
2021/10/02 04:38:54;;;;;;;7.78;6.22;;;12.90;78.60;;;;;;5053374;28;20078;-67
2021/10/02 04:41:20;;;;;;;8.05;6.60;;;12.90;78.60;;;;;;5052773;28;20045;-67
2021/10/02 04:43:46;;;;;;;9.45;7.00;;;12.90;78.70;;;;;;5050691;28;20127;-67
2021/10/02 04:46:14;;;;;;;10.85;6.57;;;12.90;78.90;;;;;;5050462;28;20048;-67
2021/10/02 04:48:40;;;;;;;8.82;6.35;;;12.80;79.00;;;;;;5050020;28;20041;-67
2021/10/02 04:51:07;;;;;;;8.18;5.80;;;12.80;79.10;;;;;;5051475;28;20527;-67
2021/10/02 04:53:33;;;;;;;8.65;6.32;;;12.80;79.10;;;;;;5052961;28;20078;-67
2021/10/02 04:56:00;;;;;;;7.35;6.22;;;12.80;79.10;;;;;;5053596;28;20036;-67
2021/10/02 04:58:29;;;;;;;6.72;5.70;;;12.80;79.10;;;;;;5052301;28;20135;-67
2021/10/02 05:00:55;;;;;;;7.72;6.43;;;12.80;79.20;;;;;;5050436;28;20523;-67
2021/10/02 05:03:21;;;;;;;8.95;6.85;;;12.90;79.40;;;;;;5051119;28;20036;-67
2021/10/02 05:05:47;;;;;;;8.15;6.60;;;12.80;79.60;;;;;;5049607;28;20100;-67
2021/10/02 05:08:13;;;;;;;7.07;6.03;;;12.90;79.80;;;;;;5050927;28;20037;-67
2021/10/02 05:10:39;;;;;;;7.32;6.45;;;12.90;79.70;;;;;;5046256;28;20033;-68
2021/10/02 05:13:05;;;;;;;9.55;6.60;;;12.90;79.60;;;;;;5054302;28;20236;-67
2021/10/02 05:15:32;;;;;;;8.65;6.65;;;13.00;79.60;;;;;;5050452;28;20032;-67
2021/10/02 05:17:57;;;;;;;8.32;6.60;;;12.90;79.60;;;;;;5049585;28;20800;-67
2021/10/02 05:20:23;;;;;;;7.55;6.13;;;13.00;79.70;;;;;;5053730;28;20072;-67
2021/10/02 05:22:49;;;;;;;8.55;6.55;;;13.00;79.70;;;;;;5050007;28;20036;-67
2021/10/02 05:25:14;;;;;;;7.38;6.13;;;13.00;79.60;;;;;;5054049;28;20408;-68
2021/10/02 05:27:40;;;;;;;9.98;6.95;;;13.00;79.70;;;;;;5054072;28;20123;-67
2021/10/02 05:30:06;;;;;;;6.57;5.90;;;13.00;79.80;;;;;;5048478;28;20041;-67
2021/10/02 05:32:32;;;;;;;8.27;6.53;;;13.00;79.80;;;;;;5047268;28;20126;-67
2021/10/02 05:34:58;;;;;;;8.73;5.93;;;13.10;79.90;;;;;;5050268;28;20572;-67
2021/10/02 05:37:24;;;;;;;7.10;6.22;;;13.10;80.00;;;;;;5050669;28;20071;-67
2021/10/02 05:39:50;;;;;;;8.30;6.38;;;13.10;80.00;;;;;;5048831;28;20051;-67
2021/10/02 05:42:16;;;;;;;8.25;6.32;;;13.10;79.90;;;;;;5042918;28;20029;-67
2021/10/02 05:44:41;;;;;;;10.23;6.85;;;13.10;79.90;;;;;;5051750;28;20512;-68
2021/10/02 05:47:07;;;;;;;7.88;6.45;;;13.20;80.10;;;;;;5045281;28;20040;-67
2021/10/02 05:49:33;;;;;;;6.80;6.10;;;13.20;80.10;;;;;;5044494;28;20033;-67
2021/10/02 05:51:59;;;;;;;9.57;6.50;;;13.20;80.20;;;;;;5043837;28;20044;-67
2021/10/02 05:54:24;;;;;;;8.40;6.35;;;13.20;80.30;;;;;;5053087;28;20155;-66
2021/10/02 05:56:50;;;;;;;9.38;6.60;;;13.20;80.40;;;;;;5053491;28;20444;-67
2021/10/02 05:59:16;;;;;;;8.48;6.68;;;13.20;80.60;;;;;;5057372;28;20064;-67
2021/10/02 06:01:41;;;;;;;9.55;6.60;;;13.20;80.70;;;;;;5051287;28;20635;-67
2021/10/02 06:04:07;;;;;;;8.77;6.78;;;13.20;80.80;;;;;;5054521;28;20032;-68
2021/10/02 06:06:33;;;;;;;7.75;6.40;;;13.20;80.80;;;;;;5055042;28;20513;-67
2021/10/02 06:08:58;;;;;;;9.30;6.95;;;13.20;80.80;;;;;;5057570;28;20033;-67
2021/10/02 06:11:24;;;;;;;8.90;6.68;;;13.20;80.70;;;;;;5055367;28;20036;-67
2021/10/02 06:13:50;;;;;;;8.13;7.07;;;13.30;80.60;;;;;;5054825;28;20499;-67
2021/10/02 06:16:17;;;;;;;9.32;7.22;;;13.30;80.60;;;;;;5054004;28;20539;-66
2021/10/02 06:18:43;;;;;;;10.57;7.00;;;13.40;80.70;;;;;;5054450;28;20764;-67
2021/10/02 06:21:11;;;;;;;10.55;6.90;;;13.40;80.80;;;;;;5058624;28;20036;-67
2021/10/02 06:23:41;;;;;;;9.95;6.93;;;13.50;80.80;;;;;;5058110;28;20036;-67
2021/10/02 06:26:07;;;;;;;8.52;7.35;;;13.50;81.10;;;;;;5056373;28;20119;-67
2021/10/02 06:28:33;;;;;;;11.43;9.38;;;13.50;81.00;;;;;;5054393;28;20037;-67
2021/10/02 06:30:59;;;;;;;12.18;9.68;;;13.60;81.00;;;;;;5047527;28;20044;-68
2021/10/02 06:33:24;;;;;;;10.98;9.57;;;13.60;81.00;;;;;;5046704;28;20435;-67
2021/10/02 06:35:50;;;;;;;11.07;9.20;;;13.70;81.00;;;;;;5048547;28;20040;-67
2021/10/02 06:38:16;;;;;;;10.88;9.32;;;13.70;81.00;;;;;;5046649;28;20037;-67
2021/10/02 06:40:44;;;;;;;12.27;9.88;;;13.70;81.00;;;;;;5049112;28;20060;-67
2021/10/02 06:43:11;;;;;;;11.77;9.23;;;13.80;81.20;;;;;;5050563;28;20139;-67
2021/10/02 06:45:37;;;;;;;12.82;8.38;;;13.80;81.00;;;;;;5044808;28;20493;-67
2021/10/02 06:48:04;;;;;;;16.08;9.77;;;13.90;81.00;;;;;;5045106;28;20045;-67
2021/10/02 06:50:30;;;;;;;14.25;9.25;;;13.90;81.00;;;;;;5046322;28;20115;-66
2021/10/02 06:52:55;;;;;;;13.68;9.00;;;14.00;80.90;;;;;;5049535;28;20057;-65
2021/10/02 06:55:22;;;;;;;11.85;7.53;;;14.10;80.80;;;;;;5046925;28;20053;-66
2021/10/02 06:57:48;;;;;;;12.77;8.02;;;14.10;80.60;;;;;;5049871;28;20155;-67
2021/10/02 07:00:14;;;;;;;16.80;9.35;;;14.20;80.60;;;;;;5050424;28;20571;-67
2021/10/02 07:02:41;;;;;;;14.45;8.38;;;14.20;80.60;;;;;;5048044;28;20033;-67
2021/10/02 07:05:07;;;;;;;12.18;8.45;;;14.30;80.60;;;;;;5047705;28;20064;-67
2021/10/02 07:07:33;;;;;;;12.90;8.60;;;14.30;80.60;;;;;;5052098;28;20059;-67
2021/10/02 07:09:58;;;;;;;14.73;8.82;;;14.40;80.70;;;;;;5050200;28;20037;-68
2021/10/02 07:12:24;;;;;;;11.68;8.75;;;14.40;80.70;;;;;;5046216;28;20029;-66
2021/10/02 07:14:50;;;;;;;14.43;9.82;;;14.50;80.80;;;;;;5043955;28;20044;-67
2021/10/02 07:17:15;;;;;;;12.93;9.15;;;14.60;80.80;;;;;;5049921;28;20522;-67
2021/10/02 07:19:41;;;;;;;14.43;10.25;;;14.60;81.50;;;;;;5052197;28;20064;-67
2021/10/02 07:22:07;;;;;;;14.50;9.55;;;14.70;80.80;;;;;;5047792;28;20033;-67
2021/10/02 07:24:32;;;;;;;13.43;8.85;;;14.80;81.00;;;;;;5052375;28;20504;-68
2021/10/02 07:26:58;;;;;;;10.55;7.15;;;14.80;81.10;;;;;;5053438;28;20106;-67
2021/10/02 07:29:23;;;;;;;9.55;7.47;;;14.90;81.30;;;;;;5052985;28;20162;-67
2021/10/02 07:31:49;;;;;;;11.80;7.80;;;15.00;81.50;;;;;;5049179;28;20059;-67
2021/10/02 07:34:16;;;;;;;10.50;7.35;;;15.10;81.60;;;;;;5047942;28;20036;-68
2021/10/02 07:36:42;;;;;;;10.95;7.53;;;15.10;81.70;;;;;;5047421;28;20035;-68
2021/10/02 07:39:08;;;;;;;9.77;6.93;;;15.20;81.90;;;;;;5050586;28;20029;-68
2021/10/02 07:41:41;;;;;;;10.80;7.60;;;15.30;82.00;;;;;;5050896;28;20039;-67
2021/10/02 07:44:10;;;;;;;10.32;7.63;;;15.40;82.40;;;;;;5051945;28;20511;-68
2021/10/02 07:46:40;;;;;;;14.57;7.95;;;15.50;82.30;;;;;;5046340;28;20124;-68
2021/10/02 07:49:06;;;;;;;11.57;8.00;;;15.60;82.20;;;;;;5052042;28;20039;-68
2021/10/02 07:51:32;;;;;;;16.17;9.35;;;15.60;82.20;;;;;;5048442;28;20064;-67
2021/10/02 07:53:58;;;;;;;14.20;8.85;;;15.70;82.10;;;;;;5050974;28;20037;-68
2021/10/02 07:56:25;;;;;;;14.07;9.38;;;15.80;82.20;;;;;;5050056;28;20033;-68
2021/10/02 07:58:53;;;;;;;14.27;9.43;;;15.90;82.20;;;;;;5044392;28;20372;-68
2021/10/02 08:01:19;;;;;;;13.73;9.25;;;15.90;82.00;;;;;;5046446;28;20399;-67
2021/10/02 08:03:45;;;;;;;15.20;9.55;;;16.00;82.00;;;;;;5043499;28;20116;-68
2021/10/02 08:06:11;;;;;;;14.68;9.48;;;16.10;82.10;;;;;;5043540;28;20041;-68
2021/10/02 08:08:37;;;;;;;17.02;9.30;;;16.20;82.00;;;;;;5045336;28;20037;-68
2021/10/02 08:11:06;;;;;;;13.40;9.13;;;16.20;82.00;;;;;;5051654;28;20032;-68
2021/10/02 08:13:32;;;;;;;14.13;9.98;;;16.30;82.20;;;;;;5048989;28;20123;-68
2021/10/02 08:16:00;;;;;;;18.13;10.10;;;16.40;82.20;;;;;;5046815;28;20427;-68
2021/10/02 08:18:30;;;;;;;12.55;8.88;;;16.40;82.30;;;;;;5046317;28;20033;-68
2021/10/02 08:20:58;;;;;;;12.10;8.27;;;16.60;82.20;;;;;;5047356;28;20040;-68
2021/10/02 08:23:24;;;;;;;13.95;8.57;;;16.60;82.10;;;;;;5047860;28;20083;-68
2021/10/02 08:25:53;;;;;;;10.88;7.85;;;16.70;81.90;;;;;;5050797;28;20035;-68
2021/10/02 08:28:19;;;;;;;8.75;7.38;;;16.80;81.60;;;;;;5045944;28;20040;-68
2021/10/02 08:30:47;;;;;;;9.68;7.43;;;16.80;81.20;;;;;;5047879;28;20429;-68
2021/10/02 08:33:13;;;;;;;10.57;8.13;;;16.90;81.10;;;;;;5048355;28;20114;-68
2021/10/02 08:35:40;;;;;;;11.15;8.30;;;16.90;81.00;;;;;;5053627;28;20036;-68
2021/10/02 08:38:06;;;;;;;10.65;8.27;;;16.90;81.00;;;;;;5048319;28;20045;-67
2021/10/02 08:40:32;;;;;;;10.88;7.85;;;17.00;81.00;;;;;;5047279;28;21808;-67
2021/10/02 08:42:58;;;;;;;12.57;8.50;;;17.00;80.90;;;;;;5045285;28;20032;-67
2021/10/02 08:45:28;;;;;;;10.73;8.50;;;17.00;80.90;;;;;;5044823;28;20124;-67
2021/10/02 08:47:56;;;;;;;12.32;7.88;;;17.10;81.30;;;;;;5047577;28;20459;-68
2021/10/02 08:50:22;;;;;;;12.82;7.88;;;17.10;81.00;;;;;;5044455;28;20045;-68
2021/10/02 08:52:48;;;;;;;9.35;7.35;;;17.20;81.20;;;;;;5027993;28;20037;-68
2021/10/02 08:55:15;;;;;;;8.88;7.38;;;17.20;81.30;;;;;;5028840;28;20521;-68
2021/10/02 08:57:44;;;;;;;8.65;6.93;;;17.30;81.20;;;;;;5029622;28;20046;-68
2021/10/02 09:00:13;;;;;;;7.72;6.93;;;17.40;80.80;;;;;;5044656;28;20029;-68
2021/10/02 09:02:39;;;;;;;8.00;6.60;;;17.50;80.50;;;;;;5048204;28;20803;-67
2021/10/02 09:05:08;;;;;;;9.13;6.70;;;17.60;80.10;;;;;;5047127;28;20040;-67
2021/10/02 09:07:34;;;;;;;9.02;7.10;;;17.70;79.90;;;;;;5046371;28;20033;-68
2021/10/02 09:10:05;;;;;;;8.60;6.45;;;17.80;80.50;;;;;;5052215;28;20526;-68
2021/10/02 09:12:32;;;;;;;7.95;5.93;;;17.90;79.60;;;;;;5042079;28;21262;-68
2021/10/02 09:15:02;;;;;;;9.85;7.03;;;18.00;79.20;;;;;;5046506;28;20040;-68
2021/10/02 09:17:29;;;;;;;29.48;7.40;;;18.10;78.80;;;;;;5043422;28;20029;-67
2021/10/02 09:19:54;;;;;;;9.60;6.47;;;18.20;78.30;;;;;;5051431;28;20044;-68
2021/10/02 09:22:22;;;;;;;7.40;6.38;;;18.30;77.90;;;;;;5043922;28;20044;-65
2021/10/02 09:24:49;;;;;;;8.63;6.32;;;18.40;77.70;;;;;;5042330;28;20078;-68
2021/10/02 09:27:19;;;;;;;23.48;6.53;;;18.50;77.20;;;;;;5043212;28;20052;-66
2021/10/02 09:29:50;;;;;;;7.90;5.95;;;18.60;76.60;;;;;;5045130;28;20040;-66
2021/10/02 09:32:18;;;;;;;9.77;5.55;;;18.70;76.10;;;;;;5050105;28;20037;-66
2021/10/02 09:34:51;;;;;;;6.90;6.20;;;18.70;75.70;;;;;;5053481;28;20086;-65
2021/10/02 09:37:17;;;;;;;9.73;6.25;;;18.80;75.00;;;;;;5046958;28;20041;-66
2021/10/02 09:39:44;;;;;;;7.80;5.88;;;18.90;74.60;;;;;;5053088;28;20040;-66
2021/10/02 09:42:31;;;;;;;7.57;5.60;;;18.90;74.40;;;;;;5051433;28;20506;-65
2021/10/02 09:44:59;;;;;;;6.43;5.43;;;19.00;74.00;;;;;;5053660;28;20124;-66
2021/10/02 09:47:25;;;;;;;6.85;4.82;;;19.00;74.10;;;;;;5046236;28;20037;-65
2021/10/02 09:49:51;;;;;;;7.10;5.50;;;19.10;74.00;;;;;;5045639;28;20763;-65
2021/10/02 09:52:41;;;;;;;8.27;5.80;;;19.10;73.70;;;;;;5048561;28;20051;-65
2021/10/02 09:55:29;;;;;;;7.85;6.15;;;19.20;73.30;;;;;;5027388;28;20091;-65
2021/10/02 09:58:05;;;;;;;6.45;5.38;;;19.20;73.00;;;;;;5025922;28;20049;-66
2021/10/02 10:00:34;;;;;;;7.47;5.80;;;19.30;73.20;;;;;;5029558;28;20044;-65
2021/10/02 10:03:08;;;;;;;7.88;5.63;;;19.40;73.30;;;;;;5029928;28;20501;-65
2021/10/02 10:05:36;;;;;;;6.47;5.32;;;19.40;72.80;;;;;;5050015;28;20144;-66
2021/10/02 10:08:05;;;;;;;8.02;5.47;;;19.60;73.10;;;;;;5035209;28;20088;-66
2021/10/02 10:10:35;;;;;;;7.45;5.15;;;19.70;72.50;;;;;;5032937;28;20033;-66
2021/10/02 10:13:13;;;;;;;6.50;4.80;;;19.70;71.90;;;;;;5031910;28;20090;-66
2021/10/02 10:15:44;;;;;;;9.50;5.20;;;19.80;70.70;;;;;;5034187;28;20188;-66
2021/10/02 10:18:12;;;;;;;5.32;4.57;;;19.90;70.40;;;;;;5034796;28;20146;-66
2021/10/02 10:20:50;;;;;;;7.78;4.88;;;20.00;70.40;;;;;;5034546;28;20044;-66
2021/10/02 10:23:29;;;;;;;10.10;5.00;;;20.10;69.50;;;;;;5048909;28;20529;-65
2021/10/02 10:25:57;;;;;;;12.70;5.70;;;20.10;69.20;;;;;;5033543;28;20033;-66
2021/10/02 10:28:25;;;;;;;6.65;4.82;;;20.10;69.50;;;;;;5031432;28;20504;-64
2021/10/02 10:30:52;;;;;;;5.25;4.75;;;20.20;69.20;;;;;;5049531;28;20044;-66
2021/10/02 10:33:19;;;;;;;7.85;4.72;;;20.20;69.10;;;;;;5034404;28;20036;-66
2021/10/02 10:35:48;;;;;;;4.78;4.22;;;20.30;69.00;;;;;;5035293;28;20048;-66
2021/10/02 10:38:22;;;;;;;4.78;4.22;;;20.30;68.50;;;;;;5035369;28;20860;-66
2021/10/02 10:40:49;;;;;;;8.13;4.53;;;20.30;68.30;;;;;;5036574;28;20128;-66
2021/10/02 10:43:16;;;;;;;5.88;4.30;;;20.40;68.50;;;;;;5050858;28;20029;-66
2021/10/02 10:45:42;;;;;;;5.60;4.43;;;20.40;68.10;;;;;;5055531;28;20493;-66
2021/10/02 10:48:09;;;;;;;13.35;5.00;;;20.40;68.00;;;;;;5055388;28;20049;-66
2021/10/02 10:50:37;;;;;;;5.07;4.57;;;20.50;67.80;;;;;;5055691;28;20358;-65
2021/10/02 10:53:04;;;;;;;21.63;5.90;;;20.50;67.40;;;;;;5055970;28;20090;-66
2021/10/02 10:55:30;;;;;;;8.10;4.47;;;20.50;67.20;;;;;;5055031;28;20033;-66
2021/10/02 10:57:57;;;;;;;4.75;3.67;;;20.60;67.40;;;;;;5054457;28;20041;-66
2021/10/02 11:00:32;;;;;;;6.10;4.05;;;20.70;67.30;;;;;;5056201;28;20068;-68
2021/10/02 11:03:07;;;;;;;5.43;4.05;;;20.70;66.60;;;;;;5053838;28;20059;-66
2021/10/02 11:05:39;;;;;;;5.13;3.90;;;20.70;66.70;;;;;;5057281;28;20036;-66
2021/10/02 11:08:19;;;;;;;7.18;4.05;;;20.80;66.70;;;;;;5048225;28;20043;-66
2021/10/02 11:10:51;;;;;;;5.97;4.05;;;20.90;66.20;;;;;;5051345;28;20037;-66
2021/10/02 11:13:27;;;;;;;4.22;3.47;;;20.90;66.10;;;;;;5048337;28;20037;-68
2021/10/02 11:15:53;;;;;;;4.35;3.95;;;21.00;66.40;;;;;;5056185;28;20032;-68
2021/10/02 11:18:47;;;;;;;4.18;3.65;;;21.00;65.90;;;;;;5050642;28;20115;-68
2021/10/02 11:21:15;;;;;;;4.47;3.60;;;21.10;64.90;;;;;;5051420;28;20128;-66
2021/10/02 11:23:59;;;;;;;4.63;3.17;;;21.30;65.60;;;;;;5054924;28;20446;-68
2021/10/02 11:26:27;;;;;;;5.65;3.60;;;21.30;64.30;;;;;;5052956;28;20033;-68
2021/10/02 11:29:02;;;;;;;3.85;3.38;;;21.40;64.60;;;;;;5055084;28;20476;-68
2021/10/02 11:31:31;;;;;;;4.05;3.55;;;21.50;64.50;;;;;;5052972;28;20356;-68
2021/10/02 11:33:59;;;;;;;3.50;3.20;;;21.60;64.50;;;;;;5052923;28;20029;-68
2021/10/02 11:36:31;;;;;;;4.38;3.50;;;21.60;64.10;;;;;;5049796;28;20040;-68
2021/10/02 11:39:11;;;;;;;3.78;3.47;;;21.70;62.70;;;;;;5053138;28;20025;-68
2021/10/02 11:41:49;;;;;;;3.88;3.47;;;21.80;62.00;;;;;;5052252;28;20064;-68
2021/10/02 11:44:31;;;;;;;4.00;3.22;;;21.80;62.20;;;;;;5051851;28;20036;-68
2021/10/02 11:47:27;;;;;;;4.25;3.72;;;21.90;61.80;;;;;;5066045;28;20025;-68
2021/10/02 11:50:08;;;;;;;3.88;3.08;;;22.00;61.40;;;;;;5052422;28;20032;-68
2021/10/02 11:52:35;;;;;;;4.55;3.28;;;22.00;60.80;;;;;;5052618;28;20373;-67
2021/10/02 11:55:42;;;;;;;3.90;3.20;;;22.10;62.20;;;;;;5053048;28;20049;-68
2021/10/02 11:58:08;;;;;;;4.22;3.38;;;22.20;61.10;;;;;;5045359;28;20044;-68
2021/10/02 12:00:34;;;;;;;3.33;3.00;;;22.20;61.20;;;;;;5052609;28;20032;-68
2021/10/02 12:03:02;;;;;;;4.20;3.00;;;22.30;61.20;;;;;;5050849;28;20043;-67
2021/10/02 12:05:28;;;;;;;3.47;3.17;;;22.40;61.00;;;;;;5052188;28;20052;-68
2021/10/02 12:07:54;;;;;;;4.22;2.90;;;22.40;61.00;;;;;;5048937;28;20091;-67
2021/10/02 12:10:20;;;;;;;3.40;3.10;;;22.40;60.70;;;;;;5048269;28;20127;-66
2021/10/02 12:12:46;;;;;;;3.75;3.20;;;22.50;60.80;;;;;;5042714;28;20067;-68
2021/10/02 12:15:11;;;;;;;4.25;3.08;;;22.50;60.30;;;;;;5049337;28;20037;-68
2021/10/02 12:17:53;;;;;;;4.97;3.20;;;22.60;59.90;;;;;;5051156;28;20551;-69
2021/10/02 12:20:19;;;;;;;4.35;2.65;;;22.70;58.50;;;;;;5052031;28;20037;-68
2021/10/02 12:22:44;;;;;;;3.05;2.78;;;22.70;59.30;;;;;;5051927;28;20402;-69
2021/10/02 12:25:10;;;;;;;3.10;2.80;;;22.70;59.10;;;;;;5053163;28;20029;-68
2021/10/02 12:27:36;;;;;;;3.65;2.65;;;22.70;58.50;;;;;;5050235;28;20055;-68
2021/10/02 12:30:03;;;;;;;4.00;2.45;;;22.80;58.30;;;;;;5052855;28;20504;-68
2021/10/02 12:32:30;;;;;;;2.90;2.70;;;22.80;57.60;;;;;;5047516;28;20045;-68
2021/10/02 12:35:02;;;;;;;2.63;2.42;;;22.80;57.20;;;;;;5051014;28;20029;-67
2021/10/02 12:37:31;;;;;;;3.25;2.47;;;22.80;57.00;;;;;;5045421;28;20060;-68
2021/10/02 12:39:58;;;;;;;4.07;2.17;;;22.80;57.10;;;;;;5052127;28;20039;-68
2021/10/02 12:42:32;;;;;;;4.38;2.70;;;22.80;57.10;;;;;;5049435;28;20057;-68
2021/10/02 12:44:58;;;;;;;2.65;2.45;;;22.80;56.20;;;;;;5048027;28;20045;-68
2021/10/02 12:47:26;;;;;;;3.08;2.78;;;22.80;57.20;;;;;;5049659;28;20124;-68
2021/10/02 12:49:54;;;;;;;3.25;2.47;;;22.90;56.90;;;;;;5050591;28;20580;-69
2021/10/02 12:52:20;;;;;;;2.65;2.45;;;22.90;57.00;;;;;;5042805;28;20064;-68
2021/10/02 12:54:51;;;;;;;3.33;2.60;;;22.90;56.20;;;;;;5046943;28;20116;-68
2021/10/02 12:57:34;;;;;;;2.67;2.47;;;22.90;55.60;;;;;;5046451;28;20052;-68
2021/10/02 13:00:09;;;;;;;2.90;2.60;;;22.90;55.50;;;;;;5048279;28;20057;-68
2021/10/02 13:02:52;;;;;;;2.25;2.05;;;22.90;55.60;;;;;;5043835;28;20033;-68
2021/10/02 13:05:20;;;;;;;3.17;2.33;;;23.00;56.00;;;;;;5044401;28;20037;-67
2021/10/02 13:08:07;;;;;;;2.58;2.28;;;23.00;56.00;;;;;;5050357;28;20040;-68
2021/10/02 13:10:35;;;;;;;3.60;2.33;;;23.00;55.00;;;;;;5049116;28;20060;-69
2021/10/02 13:13:02;;;;;;;3.17;2.40;;;23.00;55.80;;;;;;5045360;28;20511;-67
2021/10/02 13:15:43;;;;;;;2.83;2.42;;;23.10;55.40;;;;;;5052381;28;20049;-68
2021/10/02 13:18:11;;;;;;;2.45;2.25;;;23.10;54.80;;;;;;5052137;28;20041;-68
2021/10/02 13:20:57;;;;;;;5.28;2.42;;;23.10;55.30;;;;;;5048729;28;20705;-68
2021/10/02 13:23:52;;;;;;;2.78;2.50;;;23.20;54.60;;;;;;5047818;28;20138;-68
2021/10/02 13:26:22;;;;;;;2.90;2.60;;;23.20;54.90;;;;;;5024165;28;20083;-68
2021/10/02 13:28:49;;;;;;;3.28;2.33;;;23.20;55.30;;;;;;5030620;28;20040;-68
2021/10/02 13:31:15;;;;;;;4.30;2.45;;;23.20;55.00;;;;;;5032526;28;20060;-68
2021/10/02 13:33:47;;;;;;;2.67;2.47;;;23.20;55.10;;;;;;5032957;28;20492;-67
2021/10/02 13:36:27;;;;;;;2.20;2.10;;;23.20;54.70;;;;;;5033085;28;20077;-68
2021/10/02 13:38:54;;;;;;;3.05;2.67;;;23.10;54.80;;;;;;5035243;28;20025;-68
2021/10/02 13:41:19;;;;;;;2.42;2.20;;;23.10;55.00;;;;;;5037746;28;20083;-68
2021/10/02 13:43:55;;;;;;;4.25;2.58;;;23.10;55.10;;;;;;5046445;28;20567;-68
2021/10/02 13:46:26;;;;;;;3.70;2.35;;;23.10;54.20;;;;;;5049139;28;20037;-68